Time;durP1;ratioP1;P1;durP2;ratioP2;P2;SDS_P1;SDS_P2;PMS_P1;PMS_P2;Temp;Humidity;BMP_temperature;BMP_pressure;BME280_temperature;BME280_humidity;BME280_pressure;Samples;Min_cycle;Max_cycle;Signal;HPM_P1;HPM_P2
2021/07/02 00:00:10;;;;;;;6.57;5.63;;;;;;;20.41;75.54;99109.28;5068754;28;20390;-64
2021/07/02 00:02:47;;;;;;;7.85;5.45;;;;;;;20.49;75.13;99109.56;5068597;28;20903;-66
2021/07/02 00:05:25;;;;;;;13.32;5.35;;;;;;;20.79;74.02;99102.88;5068624;28;20613;-64
2021/07/02 00:08:04;;;;;;;14.50;5.18;;;;;;;20.85;73.56;99113.09;5068539;27;20375;-65
2021/07/02 00:10:42;;;;;;;7.68;5.47;;;;;;;20.56;74.66;99099.31;5067255;28;20386;-67
2021/07/02 00:13:20;;;;;;;6.90;5.75;;;;;;;20.41;75.04;99103.97;5069027;27;20375;-72
2021/07/02 00:15:58;;;;;;;5.50;4.88;;;;;;;20.57;75.02;99111.66;5108439;27;20383;-65
2021/07/02 00:18:36;;;;;;;7.15;5.20;;;;;;;20.49;74.84;99098.94;5108545;27;20376;-65
2021/07/02 00:21:13;;;;;;;7.28;5.13;;;;;;;20.51;75.22;99096.16;5088775;27;20130;-66
2021/07/02 00:23:51;;;;;;;7.43;5.25;;;;;;;20.59;74.89;99089.31;5107794;27;20372;-65
2021/07/02 00:26:29;;;;;;;7.05;4.75;;;;;;;21.09;72.78;99097.91;5108114;27;20376;-66
2021/07/02 00:29:08;;;;;;;5.68;4.43;;;;;;;20.99;73.06;99093.41;5108033;27;20361;-66
2021/07/02 00:31:46;;;;;;;9.85;4.75;;;;;;;21.09;72.49;99092.56;5067632;28;20717;-68
2021/07/02 00:34:24;;;;;;;4.97;4.30;;;;;;;21.21;71.72;99094.28;5127286;27;20375;-66
2021/07/02 00:37:02;;;;;;;7.63;5.10;;;;;;;21.01;72.58;99091.47;5108855;27;20376;-67
2021/07/02 00:39:41;;;;;;;6.10;4.60;;;;;;;20.95;72.91;99098.13;5067062;28;20376;-69
2021/07/02 00:42:22;;;;;;;6.50;4.65;;;;;;;20.69;73.36;99070.84;5108468;27;20380;-67
2021/07/02 00:45:00;;;;;;;4.90;4.22;;;;;;;20.46;74.28;99077.91;5068268;28;20382;-67
2021/07/02 00:47:38;;;;;;;9.30;4.88;;;;;;;20.34;74.74;99080.63;5068459;28;20379;-66
2021/07/02 00:50:16;;;;;;;5.38;4.82;;;;;;;19.96;75.53;99071.84;5109341;27;20376;-66
2021/07/02 00:52:55;;;;;;;7.55;4.95;;;;;;;19.80;76.62;99073.09;5109654;27;20387;-66
2021/07/02 00:55:33;;;;;;;5.47;4.97;;;;;;;19.51;77.87;99059.25;5069270;27;20383;-67
2021/07/02 00:58:11;;;;;;;5.18;4.65;;;;;;;19.45;78.46;99059.69;5109280;27;20391;-68
2021/07/02 01:00:51;;;;;;;10.35;5.18;;;;;;;19.31;78.71;99053.53;5068739;28;20721;-67
2021/07/02 01:03:29;;;;;;;9.07;5.50;;;;;;;19.28;79.11;99064.34;5068891;28;20375;-67
2021/07/02 01:06:08;;;;;;;8.05;5.60;;;;;;;19.23;79.15;99068.28;5068436;28;20382;-66
2021/07/02 01:08:44;;;;;;;8.60;5.53;;;;;;;19.14;79.39;99058.31;5103832;27;1394625;-68
2021/07/02 01:11:22;;;;;;;7.68;4.95;;;;;;;19.26;79.20;99071.56;5088405;27;20374;-67
2021/07/02 01:14:00;;;;;;;5.93;4.47;;;;;;;19.50;78.35;99079.63;5048088;28;20392;-67
2021/07/02 01:16:39;;;;;;;5.60;5.00;;;;;;;19.72;77.49;99072.78;5108034;27;20365;-67
2021/07/02 01:19:17;;;;;;;9.10;4.47;;;;;;;19.86;75.84;99052.25;5107901;27;20391;-67
2021/07/02 01:21:55;;;;;;;5.63;4.30;;;;;;;20.14;74.99;99068.81;5107646;27;20376;-68
2021/07/02 01:24:35;;;;;;;7.50;4.50;;;;;;;20.34;74.43;99070.84;5067372;28;20391;-68
2021/07/02 01:27:12;;;;;;;4.63;4.22;;;;;;;20.39;74.00;99074.03;5100621;27;1422908;-67
2021/07/02 01:29:50;;;;;;;5.47;4.43;;;;;;;20.34;74.08;99073.50;5108664;27;20376;-67
2021/07/02 01:32:29;;;;;;;4.85;4.45;;;;;;;20.23;74.38;99076.09;5107002;27;20380;-68
2021/07/02 01:35:06;;;;;;;7.53;4.75;;;;;;;20.05;75.27;99080.09;5103072;27;1438070;-68
2021/07/02 01:37:44;;;;;;;5.63;4.03;;;;;;;20.13;74.99;99089.22;5105677;27;1362660;-66
2021/07/02 01:40:22;;;;;;;4.97;4.57;;;;;;;20.21;74.60;99092.16;5109126;27;20373;-68
2021/07/02 01:43:03;;;;;;;5.60;4.18;;;;;;;20.28;73.92;99079.25;5108970;27;20379;-67
2021/07/02 01:45:44;;;;;;;4.78;4.35;;;;;;;20.35;74.25;99095.59;5069300;28;20383;-67
2021/07/02 01:48:22;;;;;;;5.10;4.50;;;;;;;20.07;74.89;99083.53;5108680;27;20711;-67
2021/07/02 01:51:00;;;;;;;5.28;4.60;;;;;;;20.15;75.20;99091.75;5109798;27;20373;-67
2021/07/02 01:53:38;;;;;;;4.13;3.83;;;;;;;20.63;73.26;99092.59;5069342;28;20371;-67
2021/07/02 01:56:16;;;;;;;5.60;4.20;;;;;;;20.78;72.74;99095.88;5109508;27;20353;-67
2021/07/02 01:58:58;;;;;;;4.15;3.83;;;;;;;20.63;72.79;99104.06;5068962;28;20722;-68
2021/07/02 02:01:50;;;;;;;3.80;3.50;;;;;;;20.69;72.70;99099.25;5109956;27;20361;-66
2021/07/02 02:04:32;;;;;;;4.60;3.85;;;;;;;20.79;72.11;99086.94;5105861;27;1361104;-67
2021/07/02 02:07:10;;;;;;;4.30;3.90;;;;;;;20.92;71.34;99093.03;5109478;27;20372;-67
2021/07/02 02:09:50;;;;;;;5.13;4.28;;;;;;;21.08;71.10;99101.53;5069081;28;20375;-66
2021/07/02 02:12:28;;;;;;;9.90;4.70;;;;;;;20.87;71.65;99089.88;5084438;28;20740;-66
2021/07/02 02:15:06;;;;;;;5.38;4.05;;;;;;;20.53;72.98;99073.84;5109938;27;1355066;-66
2021/07/02 02:17:43;;;;;;;4.45;3.80;;;;;;;21.00;71.57;99084.47;5103431;27;1436427;-66
2021/07/02 02:20:20;;;;;;;4.40;4.00;;;;;;;21.40;69.83;99072.41;5104471;27;1368001;-66
2021/07/02 02:22:59;;;;;;;7.18;3.60;;;;;;;21.66;68.74;99080.16;5108654;27;20365;-68
2021/07/02 02:25:37;;;;;;;3.47;3.28;;;;;;;21.85;68.03;99081.22;5068093;27;20379;-67
2021/07/02 02:28:16;;;;;;;6.53;3.83;;;;;;;21.67;68.55;99077.38;5088347;27;20750;-67
2021/07/02 02:30:54;;;;;;;8.48;4.00;;;;;;;21.72;68.38;99083.19;5109080;27;20384;-68
2021/07/02 02:33:32;;;;;;;6.00;3.90;;;;;;;21.56;68.63;99088.88;5068434;27;20371;-70
2021/07/02 02:36:09;;;;;;;7.70;4.18;;;;;;;21.43;69.16;99076.66;5103520;27;1373832;-67
2021/07/02 02:38:47;;;;;;;5.95;4.65;;;;;;;21.27;70.27;99076.19;5069391;28;20375;-68
2021/07/02 02:41:25;;;;;;;4.40;4.00;;;;;;;21.36;69.74;99086.94;5068926;28;20903;-67
2021/07/02 02:44:04;;;;;;;5.13;3.95;;;;;;;21.53;69.19;99083.78;5109281;27;20360;-68
2021/07/02 02:46:41;;;;;;;6.93;4.85;;;;;;;21.53;68.94;99085.59;5088146;27;20373;-67
2021/07/02 02:49:20;;;;;;;5.50;4.35;;;;;;;21.58;68.57;99083.44;5068412;28;20918;-66
2021/07/02 02:51:58;;;;;;;4.60;4.20;;;;;;;21.65;68.03;99076.66;5109548;27;20368;-66
2021/07/02 02:54:36;;;;;;;6.10;4.03;;;;;;;21.76;68.15;99089.94;5068351;28;20379;-67
2021/07/02 02:57:14;;;;;;;9.43;4.45;;;;;;;21.97;67.25;99092.69;5109396;27;20360;-72
2021/07/02 02:59:56;;;;;;;5.35;4.50;;;;;;;22.11;66.41;99091.59;5108304;27;20383;-66
2021/07/02 03:02:33;;;;;;;8.68;4.57;;;;;;;22.39;64.98;99087.50;5104202;27;1385587;-68
2021/07/02 03:05:10;;;;;;;4.65;4.20;;;;;;;22.30;65.25;99078.47;5067538;28;20375;-68
2021/07/02 03:07:52;;;;;;;7.40;4.15;;;;;;;22.38;65.11;99078.69;5067835;28;20378;-66
2021/07/02 03:10:30;;;;;;;8.23;4.63;;;;;;;22.38;65.37;99070.69;5088486;28;20895;-67
2021/07/02 03:13:09;;;;;;;6.32;4.28;;;;;;;22.28;65.63;99091.03;5108666;27;20368;-68
2021/07/02 03:15:47;;;;;;;7.88;4.40;;;;;;;22.59;64.68;99093.84;5109369;27;20364;-69
2021/07/02 03:18:25;;;;;;;4.45;3.97;;;;;;;22.47;64.70;99085.06;5068120;27;20371;-69
2021/07/02 03:21:03;;;;;;;7.25;4.38;;;;;;;22.55;64.53;99087.06;5088665;27;20378;-66
2021/07/02 03:23:41;;;;;;;7.13;4.30;;;;;;;22.79;63.64;99071.66;5068435;28;20375;-69
2021/07/02 03:26:33;;;;;;;7.55;3.70;;;;;;;22.82;63.04;99052.78;5108090;27;1399015;-69
2021/07/02 03:29:11;;;;;;;6.00;4.18;;;;;;;22.88;63.42;99084.25;5108481;27;20383;-67
2021/07/02 03:31:49;;;;;;;4.50;4.10;;;;;;;22.95;62.93;99084.56;5068285;28;20398;-69
2021/07/02 03:34:29;;;;;;;4.30;3.80;;;;;;;22.83;63.20;99089.13;5087019;27;20906;-70
2021/07/02 03:37:07;;;;;;;5.05;3.40;;;;;;;22.82;62.95;99092.78;5149587;27;20397;-70
2021/07/02 03:39:49;;;;;;;6.47;3.85;;;;;;;22.84;63.06;99082.81;5108535;27;20388;-71
2021/07/02 03:42:27;;;;;;;6.22;3.72;;;;;;;22.74;62.77;99081.88;5109196;27;20861;-67
2021/07/02 03:45:06;;;;;;;6.40;4.00;;;;;;;22.46;64.46;99097.53;5109258;27;20392;-70
2021/07/02 03:47:46;;;;;;;7.75;3.75;;;;;;;22.24;65.52;99092.28;5088616;27;20389;-70
2021/07/02 03:50:25;;;;;;;5.90;3.63;;;;;;;21.98;65.59;99088.19;5084570;28;20379;-70
2021/07/02 03:53:04;;;;;;;5.38;3.65;;;;;;;22.21;65.22;99100.50;5128374;27;20485;-72
2021/07/02 03:55:43;;;;;;;4.15;3.83;;;;;;;22.15;65.57;99087.69;5148232;27;20512;-69
2021/07/02 03:58:22;;;;;;;5.05;3.42;;;;;;;22.08;65.66;99089.19;5108351;27;20392;-70
2021/07/02 04:01:01;;;;;;;4.45;4.05;;;;;;;21.85;66.62;99105.19;5149248;27;20389;-70
2021/07/02 04:03:39;;;;;;;5.28;3.72;;;;;;;21.69;67.72;99098.56;5109441;27;20388;-75
2021/07/02 04:06:17;;;;;;;5.63;3.60;;;;;;;21.64;67.58;99090.94;5149732;27;20381;-72
2021/07/02 04:08:53;;;;;;;4.63;3.80;;;;;;;21.60;67.75;99085.97;5109706;27;20117;-72
2021/07/02 04:11:44;;;;;;;6.65;3.50;;;;;;;21.75;67.17;99100.72;5170397;27;20532;-68
2021/07/02 04:14:22;;;;;;;4.75;3.40;;;;;;;21.73;67.42;99106.16;5086447;28;20183;-69
2021/07/02 04:17:01;;;;;;;3.80;3.50;;;;;;;21.85;66.75;99105.19;5169545;27;20590;-65
2021/07/02 04:19:39;;;;;;;4.82;3.60;;;;;;;21.81;66.99;99109.06;5107399;27;20167;-66
2021/07/02 04:22:17;;;;;;;5.25;3.58;;;;;;;21.77;66.60;99090.78;5086683;28;20394;-67
2021/07/02 04:24:55;;;;;;;3.70;3.40;;;;;;;21.85;66.63;99110.50;5161568;27;20124;-66
2021/07/02 04:27:34;;;;;;;4.65;3.45;;;;;;;21.94;66.16;99100.06;5108196;27;20121;-67
2021/07/02 04:30:13;;;;;;;5.20;3.95;;;;;;;21.86;66.61;99096.22;5107983;27;20121;-67
2021/07/02 04:32:51;;;;;;;4.32;3.47;;;;;;;22.04;66.23;99109.03;5190426;27;20510;-67
2021/07/02 04:35:29;;;;;;;3.90;3.47;;;;;;;22.00;66.07;99107.56;5107764;27;20915;-65
2021/07/02 04:38:08;;;;;;;3.95;3.55;;;;;;;22.18;66.32;99106.94;5066963;27;20382;-64
2021/07/02 04:40:48;;;;;;;3.92;3.60;;;;;;;22.08;66.03;99099.84;5106017;27;20873;-63
2021/07/02 04:43:25;;;;;;;5.50;3.80;;;;;;;22.09;66.41;99112.19;5065926;28;20384;-63
2021/07/02 04:46:02;;;;;;;5.07;3.72;;;;;;;22.02;66.17;99111.81;5067173;28;20127;-63
2021/07/02 04:48:40;;;;;;;4.10;3.70;;;;;;;21.73;67.19;99126.63;5067165;28;20887;-64
2021/07/02 04:51:18;;;;;;;3.85;3.50;;;;;;;21.71;67.09;99118.75;5107982;27;20377;-63
2021/07/02 04:53:56;;;;;;;8.68;4.00;;;;;;;21.65;66.96;99105.94;5107720;27;20377;-63
2021/07/02 04:56:35;;;;;;;6.75;4.20;;;;;;;21.63;67.08;99113.19;5067355;28;20386;-63
2021/07/02 04:59:14;;;;;;;4.28;3.95;;;;;;;21.62;67.37;99105.34;5107469;27;20376;-65
2021/07/02 05:01:51;;;;;;;5.43;4.20;;;;;;;21.78;66.87;99124.44;5107067;27;20380;-65
2021/07/02 05:04:29;;;;;;;5.78;4.30;;;;;;;21.70;67.49;99117.06;5066978;28;20379;-65
2021/07/02 05:07:07;;;;;;;8.80;4.10;;;;;;;21.72;66.53;99136.41;5107848;27;20376;-64
2021/07/02 05:09:44;;;;;;;5.70;4.00;;;;;;;21.44;66.94;99103.13;5104063;27;1372650;-65
2021/07/02 05:12:22;;;;;;;5.20;3.92;;;;;;;21.60;66.79;99126.75;5107860;27;21112;-65
2021/07/02 05:15:00;;;;;;;7.10;3.92;;;;;;;21.72;66.26;99127.59;5067612;28;20388;-64
2021/07/02 05:17:40;;;;;;;4.30;3.90;;;;;;;21.72;66.37;99128.44;5107601;27;20896;-64
2021/07/02 05:20:15;;;;;;;5.47;4.65;;;;;;;21.61;66.68;99123.13;5104566;27;1355012;-65
2021/07/02 05:22:53;;;;;;;6.07;4.00;;;;;;;21.68;65.99;99121.66;5067270;27;20395;-64
2021/07/02 05:25:32;;;;;;;5.40;4.13;;;;;;;21.76;65.94;99119.22;5067431;28;20390;-65
2021/07/02 05:28:10;;;;;;;5.22;4.32;;;;;;;21.95;65.05;99125.75;5107666;27;20738;-63
2021/07/02 05:30:49;;;;;;;3.90;3.45;;;;;;;21.99;64.85;99125.38;5067355;27;20773;-65
2021/07/02 05:33:27;;;;;;;4.18;3.78;;;;;;;21.94;64.03;99111.56;5107753;27;20355;-64
2021/07/02 05:36:05;;;;;;;4.10;3.72;;;;;;;22.07;64.26;99127.44;5128637;27;20119;-65
2021/07/02 05:38:43;;;;;;;5.70;3.85;;;;;;;21.97;64.70;99129.97;5128412;27;20132;-64
2021/07/02 05:41:21;;;;;;;4.88;3.90;;;;;;;22.25;63.94;99125.09;5107230;27;20174;-65
2021/07/02 05:44:00;;;;;;;4.75;4.35;;;;;;;22.39;63.03;99117.69;5128303;27;20657;-65
2021/07/02 05:46:38;;;;;;;6.13;4.28;;;;;;;22.57;62.94;99112.63;5128458;27;20116;-65
2021/07/02 05:49:17;;;;;;;7.55;4.10;;;;;;;22.82;61.81;99122.09;5107388;27;20166;-64
2021/07/02 05:51:54;;;;;;;4.30;3.90;;;;;;;23.20;60.76;99113.53;5108152;27;20489;-64
2021/07/02 05:54:33;;;;;;;8.05;4.60;;;;;;;23.74;59.23;99110.53;5087545;28;20668;-65
2021/07/02 05:57:11;;;;;;;8.25;3.85;;;;;;;24.22;57.68;99107.16;5087592;28;20163;-64
2021/07/02 05:59:49;;;;;;;4.22;3.85;;;;;;;24.04;57.50;99095.44;5087611;28;20117;-65
2021/07/02 06:02:27;;;;;;;7.82;3.75;;;;;;;24.03;57.41;99117.81;5108010;27;20178;-64
2021/07/02 06:05:06;;;;;;;3.80;3.50;;;;;;;23.81;57.74;99102.88;5128852;27;20120;-64
2021/07/02 06:07:49;;;;;;;4.75;3.45;;;;;;;23.65;58.00;99118.53;5087497;28;20195;-66
2021/07/02 06:10:30;;;;;;;7.15;3.50;;;;;;;23.57;58.91;99121.03;5107968;27;20376;-66
2021/07/02 06:13:07;;;;;;;4.78;4.25;;;;;;;23.61;59.12;99114.44;5108309;27;20745;-64
2021/07/02 06:15:44;;;;;;;7.95;3.70;;;;;;;23.57;59.11;99113.84;5108085;27;20129;-64
2021/07/02 06:18:21;;;;;;;8.48;4.03;;;;;;;23.54;59.56;99106.09;5067797;28;20142;-65
2021/07/02 06:20:59;;;;;;;5.50;3.88;;;;;;;23.68;58.90;99100.41;5108097;27;20377;-65
2021/07/02 06:23:38;;;;;;;4.43;4.03;;;;;;;23.83;58.24;99110.75;5067830;28;20390;-65
2021/07/02 06:26:16;;;;;;;6.10;4.40;;;;;;;24.18;57.45;99104.91;5067916;27;20383;-64
2021/07/02 06:28:53;;;;;;;7.05;4.30;;;;;;;24.13;57.19;99099.97;5068169;28;20750;-64
2021/07/02 06:31:32;;;;;;;5.05;4.22;;;;;;;23.85;58.05;99111.44;5108351;27;20375;-64
2021/07/02 06:34:10;;;;;;;8.48;4.22;;;;;;;23.61;59.23;99109.94;5108332;27;20380;-64
2021/07/02 06:36:48;;;;;;;6.03;4.07;;;;;;;23.67;58.82;99109.41;5108408;27;20380;-64
2021/07/02 06:39:25;;;;;;;11.60;4.45;;;;;;;23.41;59.21;99114.31;5067829;28;20139;-64
2021/07/02 06:42:04;;;;;;;9.77;3.97;;;;;;;23.49;58.70;99113.66;5067830;28;20384;-65
2021/07/02 06:44:41;;;;;;;5.68;3.97;;;;;;;23.62;58.46;99111.63;5067982;28;20926;-64
2021/07/02 06:47:19;;;;;;;5.63;4.15;;;;;;;23.43;58.81;99098.19;5108417;27;20376;-66
2021/07/02 06:49:57;;;;;;;5.15;4.10;;;;;;;23.91;57.74;99119.75;5068004;28;20398;-64
2021/07/02 06:52:34;;;;;;;6.13;4.22;;;;;;;24.21;57.29;99120.66;5104504;27;1377585;-64
2021/07/02 06:55:11;;;;;;;7.40;4.72;;;;;;;24.16;56.33;99110.38;5104294;27;1383243;-62
2021/07/02 06:57:49;;;;;;;7.70;4.03;;;;;;;24.26;56.99;99113.06;5067869;28;20812;-66
2021/07/02 07:00:27;;;;;;;6.30;3.92;;;;;;;24.26;57.05;99113.91;5102011;27;1441290;-65
2021/07/02 07:03:04;;;;;;;5.03;4.53;;;;;;;24.34;56.54;99108.75;5068059;28;20383;-65
2021/07/02 07:05:42;;;;;;;7.28;5.10;;;;;;;24.13;56.35;99105.31;5067971;28;20385;-66
2021/07/02 07:08:18;;;;;;;6.70;5.10;;;;;;;23.87;57.60;99102.31;5104412;27;1366934;-64
2021/07/02 07:10:57;;;;;;;7.18;5.00;;;;;;;24.18;56.64;99108.41;5108482;27;20392;-64
2021/07/02 07:13:36;;;;;;;7.05;4.93;;;;;;;25.07;54.06;99122.53;5067886;28;20375;-64
2021/07/02 07:16:13;;;;;;;8.25;4.65;;;;;;;25.43;52.54;99117.38;5067799;28;20382;-64
2021/07/02 07:18:51;;;;;;;8.00;5.22;;;;;;;25.47;52.68;99114.25;5067760;28;20383;-64
2021/07/02 07:21:29;;;;;;;7.32;4.22;;;;;;;25.27;52.70;99086.72;5108157;27;20881;-64
2021/07/02 07:24:08;;;;;;;4.90;4.13;;;;;;;25.13;54.02;99099.69;5108406;27;20376;-65
2021/07/02 07:26:46;;;;;;;5.07;4.53;;;;;;;24.73;54.97;99110.59;5067616;28;20375;-64
2021/07/02 07:29:25;;;;;;;8.13;4.45;;;;;;;24.78;54.65;99089.59;5108352;27;20380;-64
2021/07/02 07:32:03;;;;;;;8.20;4.70;;;;;;;25.22;54.09;99093.47;5067691;28;20382;-65
2021/07/02 07:34:50;;;;;;;9.68;4.13;;;;;;;25.50;52.82;99113.13;5108127;27;20368;-64
2021/07/02 07:37:32;;;;;;;9.60;4.45;;;;;;;25.64;52.67;99105.44;5108080;27;20170;-66
2021/07/02 07:40:12;;;;;;;8.85;4.68;;;;;;;25.42;52.99;99088.91;5108103;27;20373;-68
2021/07/02 07:42:51;;;;;;;8.77;5.15;;;;;;;25.24;53.68;99094.16;5067792;28;20764;-66
2021/07/02 07:45:29;;;;;;;9.48;4.72;;;;;;;25.09;53.53;99087.59;5107968;27;20380;-67
2021/07/02 07:48:07;;;;;;;8.45;4.38;;;;;;;25.50;53.79;99103.25;5100292;27;20405;-70
2021/07/02 07:50:49;;;;;;;9.45;4.93;;;;;;;25.48;53.14;99102.56;5068685;28;20378;-68
2021/07/02 07:53:27;;;;;;;7.55;4.80;;;;;;;25.46;53.09;99096.50;5067849;28;20693;-70
2021/07/02 07:56:05;;;;;;;10.30;4.63;;;;;;;25.50;53.39;99102.41;5067033;28;20390;-69
2021/07/02 07:58:44;;;;;;;9.95;5.00;;;;;;;25.72;52.79;99107.41;5066708;28;20379;-69
2021/07/02 08:01:22;;;;;;;10.38;5.13;;;;;;;26.08;51.55;99107.50;5107338;27;20384;-69
2021/07/02 08:04:02;;;;;;;10.55;4.70;;;;;;;26.83;49.86;99114.28;5105338;27;20399;-70
2021/07/02 08:06:44;;;;;;;12.93;5.45;;;;;;;26.78;49.74;99095.97;5107586;27;20383;-68
2021/07/02 08:09:21;;;;;;;17.80;4.40;;;;;;;26.79;49.22;99113.78;5065282;28;20717;-68
2021/07/02 08:12:12;;;;;;;15.93;4.82;;;;;;;26.86;49.16;99113.97;5106881;27;20174;-69
2021/07/02 08:14:50;;;;;;;5.25;4.55;;;;;;;26.84;49.42;99095.34;5085412;27;20537;-68
2021/07/02 08:17:29;;;;;;;10.73;5.03;;;;;;;26.90;48.66;99110.84;5077464;27;2059962;-71
2021/07/02 08:20:09;;;;;;;8.15;4.40;;;;;;;26.95;48.19;99093.41;5065150;28;20378;-69
2021/07/02 08:22:47;;;;;;;11.13;3.90;;;;;;;27.68;45.71;99110.03;5105240;27;20372;-68
2021/07/02 08:25:26;;;;;;;6.70;4.00;;;;;;;27.65;46.21;99104.97;5106181;27;20388;-69
2021/07/02 08:30:47;;;;;;;8.57;3.55;;;;;;;28.40;43.46;99093.28;5105921;27;20379;-67
2021/07/02 08:33:25;;;;;;;11.60;4.47;;;;;;;30.69;38.05;99093.47;5083890;27;20373;-67
2021/07/02 08:36:04;;;;;;;5.65;4.32;;;;;;;30.99;37.23;99089.81;5065118;27;20383;-67
2021/07/02 08:38:41;;;;;;;10.40;3.92;;;;;;;32.10;34.82;99100.59;5065088;28;20375;-68
2021/07/02 08:41:20;;;;;;;11.57;3.67;;;;;;;32.61;33.25;99088.84;5105880;27;20380;-67
2021/07/02 08:43:59;;;;;;;9.55;3.95;;;;;;;33.34;33.01;99077.63;5064407;28;20390;-66
2021/07/02 08:46:38;;;;;;;8.50;4.00;;;;;;;33.30;32.13;99079.06;5086448;28;20595;-69
2021/07/02 08:49:17;;;;;;;8.57;3.80;;;;;;;33.06;33.73;99083.03;5166232;27;19923;-68
2021/07/02 08:51:55;;;;;;;8.57;4.32;;;;;;;31.56;34.63;99073.88;5085162;28;20177;-68
2021/07/02 08:54:33;;;;;;;5.93;4.60;;;;;;;31.44;35.27;99082.66;5084174;27;20121;-68
2021/07/02 08:57:11;;;;;;;8.77;5.05;;;;;;;32.05;33.97;99075.16;5124134;27;20177;-69
2021/07/02 08:59:49;;;;;;;6.00;5.13;;;;;;;32.71;33.57;99079.41;5125413;27;20168;-67
2021/07/02 09:02:29;;;;;;;10.30;4.68;;;;;;;31.78;34.81;99064.00;5086247;28;20126;-68
2021/07/02 09:05:33;;;;;;;8.77;5.10;;;;;;;31.77;34.83;99073.13;5107344;27;20379;-67
2021/07/02 09:08:15;;;;;;;9.30;4.50;;;;;;;32.39;35.20;99079.91;5067802;27;20721;-68
2021/07/02 09:10:52;;;;;;;11.75;5.57;;;;;;;30.08;38.49;99061.00;5067867;28;20378;-67
2021/07/02 09:13:41;;;;;;;15.63;5.85;;;;;;;29.27;40.21;99064.81;5108550;27;20369;-67
2021/07/02 09:16:36;;;;;;;9.27;5.03;;;;;;;28.87;41.00;99071.13;5087038;28;20121;-67
2021/07/02 09:19:28;;;;;;;11.88;6.20;;;;;;;29.17;40.71;99080.34;5108720;27;20388;-70
2021/07/02 09:22:15;;;;;;;13.32;6.30;;;;;;;29.73;39.91;99071.28;5066092;28;20375;-68
2021/07/02 09:24:52;;;;;;;9.45;5.25;;;;;;;29.52;40.11;99064.75;5107021;27;20730;-69
2021/07/02 09:27:31;;;;;;;11.70;5.60;;;;;;;29.22;41.28;99064.50;5102766;27;1386771;-66
2021/07/02 09:30:13;;;;;;;13.55;5.60;;;;;;;28.64;42.24;99052.09;5100618;27;1412278;-68
2021/07/02 09:32:52;;;;;;;12.00;5.70;;;;;;;28.52;42.45;99056.13;5107728;27;20472;-69
2021/07/02 09:35:37;;;;;;;12.10;6.10;;;;;;;28.06;43.53;99055.69;5066125;28;20371;-68
2021/07/02 09:38:17;;;;;;;17.73;5.65;;;;;;;27.80;44.80;99049.59;5108023;27;20376;-66
2021/07/02 09:40:54;;;;;;;8.25;5.35;;;;;;;27.59;44.55;99063.44;5066881;28;20406;-67
2021/07/02 09:43:33;;;;;;;12.20;5.47;;;;;;;27.47;44.36;99043.22;5067566;28;20370;-66
2021/07/02 09:46:11;;;;;;;8.68;5.10;;;;;;;27.55;44.90;99051.34;5107104;27;20388;-67
2021/07/02 09:48:42;;;;;;;8.13;4.70;;;;;;;27.41;45.21;99052.75;5106780;28;20040;-66
2021/07/02 09:51:10;;;;;;;5.72;4.30;;;;;;;27.00;44.22;99030.22;5107541;28;20040;-66
2021/07/02 09:53:36;;;;;;;4.43;4.03;;;;;;;26.87;44.80;99054.78;5105452;28;20063;-63
2021/07/02 09:56:17;;;;;;;6.05;3.78;;;;;;;26.69;44.96;99055.78;5105090;28;20036;-66
2021/07/02 09:58:43;;;;;;;10.65;4.30;;;;;;;26.63;45.71;99038.47;5104970;28;20080;-68
2021/07/02 10:01:09;;;;;;;8.30;3.85;;;;;;;26.86;44.79;99065.69;5105638;28;20040;-67
2021/07/02 10:03:38;;;;;;;7.78;4.07;;;;;;;26.98;44.16;99060.91;5107543;28;20044;-66
2021/07/02 10:06:06;;;;;;;7.00;4.55;;;;;;;26.83;44.95;99040.00;5107250;28;20638;-76
2021/07/02 10:08:34;;;;;;;7.45;5.20;;;;;;;26.55;46.45;99052.69;5089970;28;20043;-77
2021/07/02 10:11:15;;;;;;;7.70;4.72;;;;;;;26.44;47.42;99049.41;5091893;28;20043;-74
2021/07/02 10:13:43;;;;;;;6.05;4.18;;;;;;;26.15;47.80;99060.34;5089737;28;20054;-75
2021/07/02 10:16:11;;;;;;;9.55;4.40;;;;;;;25.98;47.79;99060.13;5105828;28;20577;-76
2021/07/02 10:18:50;;;;;;;7.65;4.47;;;;;;;26.15;47.25;99054.97;5070947;28;20040;-76
2021/07/02 10:21:19;;;;;;;11.38;4.00;;;;;;;26.79;45.51;99045.84;5071333;28;20063;-65
2021/07/02 10:23:46;;;;;;;5.38;4.13;;;;;;;27.28;43.88;99057.72;5103980;28;20051;-67
2021/07/02 10:26:14;;;;;;;5.68;3.97;;;;;;;27.19;43.72;99053.31;5105017;28;20052;-68
2021/07/02 10:28:41;;;;;;;6.18;3.50;;;;;;;27.53;42.63;99059.56;5085699;28;20039;-67
2021/07/02 10:31:10;;;;;;;5.13;3.28;;;;;;;27.35;43.52;99061.47;5104633;28;20050;-66
2021/07/02 10:33:58;;;;;;;12.27;3.67;;;;;;;27.09;45.38;99057.97;5104688;28;20144;-65
2021/07/02 10:36:31;;;;;;;9.32;3.80;;;;;;;26.90;45.53;99067.03;5103255;28;20101;-65
2021/07/02 10:38:57;;;;;;;13.05;4.45;;;;;;;27.12;45.37;99071.06;5105039;28;20381;-71
2021/07/02 10:41:28;;;;;;;10.10;4.45;;;;;;;27.21;44.88;99064.75;5069443;28;20131;-68
2021/07/02 10:44:13;;;;;;;9.02;3.60;;;;;;;27.57;43.69;99064.59;5086168;28;20417;-68
2021/07/02 10:46:48;;;;;;;7.72;3.58;;;;;;;27.52;43.45;99060.56;5104830;28;20046;-69
2021/07/02 10:49:14;;;;;;;5.57;3.40;;;;;;;26.99;43.78;99043.81;5104284;28;20043;-68
2021/07/02 10:51:43;;;;;;;5.10;3.28;;;;;;;27.22;43.41;99045.78;5103582;28;20383;-69
2021/07/02 10:54:11;;;;;;;5.60;3.75;;;;;;;27.42;43.73;99056.28;5104637;28;20409;-71
2021/07/02 10:56:38;;;;;;;9.68;3.97;;;;;;;27.25;44.40;99049.16;5095644;28;20477;-71
2021/07/02 10:59:04;;;;;;;5.00;3.55;;;;;;;27.26;44.00;99046.31;5074317;28;20126;-68
2021/07/02 11:01:33;;;;;;;7.95;4.40;;;;;;;27.38;44.06;99050.41;5090760;28;20075;-72
2021/07/02 11:04:44;;;;;;;6.38;3.50;;;;;;;27.36;45.35;99052.41;5075578;28;20044;-77
2021/07/02 11:07:12;;;;;;;13.10;4.07;;;;;;;27.40;44.55;99058.28;5050797;28;20025;-79
2021/07/02 11:09:44;;;;;;;6.15;4.13;;;;;;;26.82;46.58;99051.72;5088023;28;20382;-64
2021/07/02 11:12:11;;;;;;;;;;;;;;;26.80;46.62;99048.34;5092689;28;20036;-69
2021/07/02 11:14:52;;;;;;;8.00;4.03;;;;;;;27.10;46.42;99054.28;5090758;28;19927;-76
2021/07/02 11:17:27;;;;;;;8.13;4.18;;;;;;;27.39;45.05;99057.44;5089665;28;20189;-76
2021/07/02 11:20:12;;;;;;;7.32;4.28;;;;;;;27.47;45.03;99049.44;5089832;28;20052;-73
2021/07/02 11:22:58;;;;;;;7.72;4.13;;;;;;;27.46;44.33;99057.66;5072787;28;20047;-74
2021/07/02 11:25:27;;;;;;;8.00;3.95;;;;;;;27.73;44.32;99054.78;5090334;28;20123;-74
2021/07/02 11:27:55;;;;;;;7.80;3.97;;;;;;;27.44;44.21;99060.50;5090673;28;20097;-73
2021/07/02 11:30:24;;;;;;;4.30;3.88;;;;;;;27.34;44.01;99054.41;5055642;28;20048;-72
2021/07/02 11:32:58;;;;;;;8.20;3.90;;;;;;;27.20;44.62;99053.16;5091457;28;20532;-72
2021/07/02 11:35:28;;;;;;;6.68;4.28;;;;;;;27.13;44.57;99051.28;5039059;28;20044;-74
2021/07/02 11:38:04;;;;;;;5.80;4.32;;;;;;;27.13;44.49;99049.44;5089420;28;20084;-74
2021/07/02 11:40:40;;;;;;;9.32;4.68;;;;;;;27.05;44.89;99037.81;5089247;28;20450;-70
2021/07/02 11:43:09;;;;;;;9.80;4.07;;;;;;;26.90;45.36;99062.53;5091459;28;20122;-71
2021/07/02 11:45:44;;;;;;;6.07;4.03;;;;;;;26.29;46.75;99052.59;5088809;28;20060;-75
2021/07/02 11:48:36;;;;;;;6.88;4.00;;;;;;;26.18;46.98;99055.50;5091460;28;20036;-74
2021/07/02 11:51:08;;;;;;;6.32;3.75;;;;;;;25.74;47.62;99053.69;5091195;28;20040;-72
2021/07/02 11:53:42;;;;;;;6.30;3.88;;;;;;;25.71;47.83;99045.94;5057165;28;20163;-73
2021/07/02 11:56:08;;;;;;;6.05;4.07;;;;;;;25.89;47.19;99046.81;5089833;28;20468;-74
2021/07/02 11:58:36;;;;;;;10.50;3.92;;;;;;;26.17;45.94;99052.97;5054650;28;20067;-70
2021/07/02 12:01:12;;;;;;;6.18;3.80;;;;;;;26.47;45.79;99043.72;5091423;28;20055;-79
2021/07/02 12:03:45;;;;;;;8.40;3.50;;;;;;;26.74;45.18;99048.97;5089683;28;20039;-72
2021/07/02 12:06:15;;;;;;;6.22;3.80;;;;;;;27.05;43.91;99060.13;5090064;28;20594;-74
2021/07/02 12:08:48;;;;;;;4.72;3.40;;;;;;;27.19;43.21;99062.22;5090324;28;20497;-73
2021/07/02 12:11:13;;;;;;;6.32;4.07;;;;;;;27.30;43.04;99061.09;5091293;28;20043;-72
2021/07/02 12:13:39;;;;;;;4.05;3.63;;;;;;;27.24;42.83;99061.75;5091672;28;20095;-71
2021/07/02 12:16:10;;;;;;;6.95;3.90;;;;;;;26.49;45.39;99044.41;5091439;28;20181;-72
2021/07/02 12:18:39;;;;;;;7.22;4.43;;;;;;;26.66;45.60;99065.00;5073787;28;20535;-71
2021/07/02 12:21:08;;;;;;;6.07;3.95;;;;;;;26.73;45.44;99063.38;5055966;28;20039;-71